CMB804 Details

Departure: Guantánamo Bay Naval Air Station (MUGM)
Arrival: Norfolk Naval Station (Chambers Field) (KNGU) at N/A
Route: SOUTP EASTP ZIN Y350 ZQA BR65V ZFP WOLFO AR18 PANAL AR3 CLB ISO DRONE2
Notes: USTRANSCOM CONTRACT FLIGHT | OVERFLIGHT OF CUBA PROHIBITED | SOUTP & EASTP FIXES MANDATORY


Current Weather Information
MUGM 251056Z 33007KT 9999 FEW030 FEW280 25/24 A2998 RMK SLP153 T02500239
KNGU 250959Z 04010G21KT 10SM OVC075 23/14 A3011 RMK AO2 RAB04E15 SLP197 P0000 T02280144 $